createdAt,value
2023-01-12T00:01:58.127Z,100633.50
2023-01-12T00:04:25.568Z,100638.47
2023-01-12T00:06:52.824Z,100647.50
2023-01-12T00:09:20.224Z,100650.75
2023-01-12T00:11:47.508Z,100657.22
2023-01-12T00:14:15.359Z,100645.94
2023-01-12T00:16:42.523Z,100645.59
2023-01-12T00:19:17.950Z,100659.19
2023-01-12T00:22:00.483Z,100647.53
2023-01-12T00:24:27.327Z,100649.88
2023-01-12T00:26:55.125Z,100658.63
2023-01-12T00:29:23.149Z,100654.97
2023-01-12T00:31:50.280Z,100649.59
2023-01-12T00:34:17.581Z,100643.53
2023-01-12T00:36:46.706Z,100643.44
2023-01-12T00:39:15.093Z,100643.34
2023-01-12T00:42:01.398Z,100641.75
2023-01-12T00:44:47.712Z,100645.22
2023-01-12T00:47:15.503Z,100652.25
2023-01-12T00:49:50.904Z,100648.81
2023-01-12T00:52:35.734Z,100648.38
2023-01-12T00:55:02.962Z,100644.31
2023-01-12T00:57:30.116Z,100640.94
2023-01-12T00:59:59.490Z,100639.28
2023-01-12T01:02:27.885Z,100648.63
2023-01-12T01:04:55.373Z,100653.81
2023-01-12T01:07:23.051Z,100653.03
2023-01-12T01:09:51.094Z,100653.22
2023-01-12T01:12:18.599Z,100658.69
2023-01-12T01:14:47.823Z,100661.75
2023-01-12T01:17:15.132Z,100659.69
2023-01-12T01:19:43.699Z,100659.75
2023-01-12T01:22:12.729Z,100645.91
2023-01-12T01:24:40.382Z,100642.31
2023-01-12T01:27:07.704Z,100652.25
2023-01-12T01:29:34.832Z,100656.97
2023-01-12T01:32:01.785Z,100649.69
2023-01-12T01:34:29.044Z,100660.34
2023-01-12T01:36:56.161Z,100651.28
2023-01-12T01:39:23.357Z,100657.75
2023-01-12T01:41:50.779Z,100662.59
2023-01-12T01:44:30.093Z,100652.69
2023-01-12T01:46:59.862Z,100656.56
2023-01-12T01:49:29.906Z,100652.47
2023-01-12T01:52:03.867Z,100654.75
2023-01-12T01:54:37.130Z,100654.25
2023-01-12T01:57:05.647Z,100654.69
2023-01-12T01:59:36.403Z,100660.13
2023-01-12T02:02:04.684Z,100665.78
2023-01-12T02:04:32.317Z,100653.41
2023-01-12T02:07:01.794Z,100660.66
2023-01-12T02:09:31.058Z,100655.09
2023-01-12T02:12:17.038Z,100644.00
2023-01-12T02:15:05.599Z,100654.16
2023-01-12T02:17:56.628Z,100640.00
2023-01-12T02:20:35.921Z,100637.53
2023-01-12T02:23:09.162Z,100639.97
2023-01-12T02:26:08.037Z,100641.00
2023-01-12T02:29:13.082Z,100630.34
2023-01-12T02:31:54.401Z,100625.38
2023-01-12T02:34:46.077Z,100620.56
2023-01-12T02:37:42.957Z,100612.13
2023-01-12T02:40:28.100Z,100612.34
2023-01-12T02:43:15.138Z,100608.06
2023-01-12T02:45:50.536Z,100596.16
2023-01-12T02:48:24.636Z,100593.53
2023-01-12T02:50:55.825Z,100597.72
2023-01-12T02:53:38.993Z,100595.56
2023-01-12T02:56:08.449Z,100602.28
2023-01-12T02:58:40.660Z,100596.09
2023-01-12T03:01:10.907Z,100593.59
2023-01-12T03:03:39.952Z,100590.94
2023-01-12T03:06:08.566Z,100591.16
2023-01-12T03:08:38.989Z,100593.00
2023-01-12T03:11:13.927Z,100593.41
2023-01-12T03:13:47.301Z,100591.63
2023-01-12T03:16:19.402Z,100587.41
2023-01-12T03:18:51.680Z,100585.88
2023-01-12T03:21:32.859Z,100591.13
2023-01-12T03:24:05.181Z,100581.81
2023-01-12T03:26:36.519Z,100575.75
2023-01-12T03:29:20.188Z,100575.97
2023-01-12T03:31:47.529Z,100575.28
2023-01-12T03:34:14.979Z,100567.63
2023-01-12T03:37:08.956Z,100574.72
2023-01-12T03:39:54.839Z,100563.63
2023-01-12T03:42:32.062Z,100567.38
2023-01-12T03:45:20.743Z,100567.63
2023-01-12T03:47:56.729Z,100574.72
2023-01-12T03:50:34.335Z,100572.78
2023-01-12T03:53:03.984Z,100574.03
2023-01-12T03:55:34.623Z,100564.06
2023-01-12T03:58:08.862Z,100563.34
2023-01-12T04:00:57.197Z,100562.72
2023-01-12T04:03:25.014Z,100566.41
2023-01-12T04:05:52.128Z,100555.63
2023-01-12T04:08:19.725Z,100555.03
2023-01-12T04:10:47.071Z,100540.38
2023-01-12T04:13:14.218Z,100539.94
2023-01-12T04:15:44.236Z,100540.00
2023-01-12T04:18:12.772Z,100530.63
2023-01-12T04:20:40.981Z,100536.75
2023-01-12T04:23:08.893Z,100535.78
2023-01-12T04:25:36.617Z,100530.56
2023-01-12T04:28:04.771Z,100530.84
2023-01-12T04:30:33.615Z,100520.44
2023-01-12T04:33:08.588Z,100530.69
2023-01-12T04:35:36.490Z,100524.13
2023-01-12T04:38:08.746Z,100525.03
2023-01-12T04:40:35.714Z,100524.28
2023-01-12T04:43:07.920Z,100525.09
2023-01-12T04:45:37.273Z,100524.53
2023-01-12T04:48:09.817Z,100533.63
2023-01-12T04:50:39.496Z,100528.75
2023-01-12T04:53:09.749Z,100528.75
2023-01-12T04:55:38.922Z,100522.19
2023-01-12T04:58:07.789Z,100523.03
2023-01-12T05:00:35.857Z,100535.75
2023-01-12T05:03:04.283Z,100536.00
2023-01-12T05:05:33.618Z,100530.94
2023-01-12T05:08:22.341Z,100538.97
2023-01-12T05:10:51.110Z,100534.63
2023-01-12T05:13:19.152Z,100530.56
2023-01-12T05:15:46.288Z,100530.50
2023-01-12T05:18:13.519Z,100531.59
2023-01-12T05:20:40.583Z,100532.56
2023-01-12T05:23:07.816Z,100529.91
2023-01-12T05:25:34.797Z,100528.09
2023-01-12T05:28:03.683Z,100534.34
2023-01-12T05:30:32.942Z,100540.41
2023-01-12T05:33:01.970Z,100533.69
2023-01-12T05:35:30.442Z,100540.53
2023-01-12T05:37:59.043Z,100527.88
2023-01-12T05:40:27.500Z,100525.38
2023-01-12T05:43:15.282Z,100530.63
2023-01-12T05:45:46.567Z,100518.53
2023-01-12T05:48:15.076Z,100527.41
2023-01-12T05:50:43.587Z,100524.09
2023-01-12T05:53:12.229Z,100521.63
2023-01-12T05:55:40.689Z,100520.00
2023-01-12T05:58:09.299Z,100523.44
2023-01-12T06:00:38.423Z,100520.91
2023-01-12T06:03:07.130Z,100516.94
2023-01-12T06:05:36.504Z,100510.03
2023-01-12T06:08:05.759Z,100513.69
2023-01-12T06:10:34.813Z,100513.56
2023-01-12T06:13:22.780Z,100519.88
2023-01-12T06:15:54.009Z,100513.78
2023-01-12T06:18:25.745Z,100506.19
2023-01-12T06:20:54.847Z,100512.19
2023-01-12T06:23:23.056Z,100517.47
2023-01-12T06:26:06.133Z,100510.97
2023-01-12T06:28:34.939Z,100510.16
2023-01-12T06:31:05.306Z,100506.88
2023-01-12T06:33:34.092Z,100507.97
2023-01-12T06:36:03.064Z,100514.66
2023-01-12T06:38:33.471Z,100519.16
2023-01-12T06:41:33.999Z,100525.19
2023-01-12T06:44:02.964Z,100516.53
2023-01-12T06:46:31.612Z,100521.00
2023-01-12T06:49:00.838Z,100517.59
2023-01-12T06:51:28.715Z,100523.63
2023-01-12T06:53:56.292Z,100521.59
2023-01-12T06:56:24.214Z,100530.97
2023-01-12T06:58:52.940Z,100538.25
2023-01-12T07:01:23.737Z,100543.28
2023-01-12T07:03:52.554Z,100545.19
2023-01-12T07:06:22.660Z,100547.97
2023-01-12T07:08:51.103Z,100538.34
2023-01-12T07:11:20.645Z,100543.28
2023-01-12T07:13:49.139Z,100547.66
2023-01-12T07:16:18.586Z,100546.19
2023-01-12T07:18:49.841Z,100549.78
2023-01-12T07:21:23.644Z,100546.94
2023-01-12T07:23:52.675Z,100548.88
2023-01-12T07:26:21.612Z,100540.63
2023-01-12T07:28:49.709Z,100538.38
2023-01-12T07:31:20.114Z,100538.66
2023-01-12T07:33:49.263Z,100546.34
2023-01-12T07:36:18.391Z,100538.13
2023-01-12T07:38:46.367Z,100532.19
2023-01-12T07:41:33.289Z,100523.66
2023-01-12T07:44:10.151Z,100518.94
2023-01-12T07:46:39.946Z,100515.88
2023-01-12T07:49:08.994Z,100515.84
2023-01-12T07:51:41.930Z,100516.88
2023-01-12T07:54:11.351Z,100520.75
2023-01-12T07:56:39.357Z,100509.53
2023-01-12T07:59:07.843Z,100513.22
2023-01-12T08:01:37.001Z,100510.44
2023-01-12T08:04:05.780Z,100511.38
2023-01-12T08:06:39.004Z,100519.66
2023-01-12T08:09:07.061Z,100514.63
2023-01-12T08:11:41.347Z,100518.22
2023-01-12T08:14:09.731Z,100510.97
2023-01-12T08:16:44.297Z,100515.44
2023-01-12T08:19:24.767Z,100507.81
2023-01-12T08:21:59.408Z,100504.38
2023-01-12T08:24:33.395Z,100520.38
2023-01-12T08:27:05.291Z,100521.69
2023-01-12T08:29:46.200Z,100520.91
2023-01-12T08:32:19.392Z,100513.34
2023-01-12T08:34:52.260Z,100511.75
2023-01-12T08:37:23.840Z,100508.34
2023-01-12T08:39:54.006Z,100502.47
2023-01-12T08:42:26.427Z,100507.06
2023-01-12T08:44:56.382Z,100489.91
2023-01-12T08:47:32.093Z,100491.75
2023-01-12T08:50:00.962Z,100499.78
2023-01-12T08:52:37.933Z,100495.81
2023-01-12T08:55:12.331Z,100489.13
2023-01-12T08:57:42.025Z,100505.53
2023-01-12T09:00:11.097Z,100498.53
2023-01-12T09:02:39.828Z,100506.25
2023-01-12T09:05:08.632Z,100500.97
2023-01-12T09:07:39.187Z,100502.66
2023-01-12T09:10:09.443Z,100500.25
2023-01-12T09:12:38.165Z,100493.38
2023-01-12T09:15:07.710Z,100492.53
2023-01-12T09:17:37.534Z,100499.25
2023-01-12T09:20:05.866Z,100494.72
2023-01-12T09:22:34.287Z,100503.28
2023-01-12T09:25:02.818Z,100498.63
2023-01-12T09:27:30.746Z,100485.66
2023-01-12T09:29:59.640Z,100492.53
2023-01-12T09:32:36.152Z,100492.53
2023-01-12T09:35:05.760Z,100482.56
2023-01-12T09:37:34.423Z,100484.56
2023-01-12T09:40:05.841Z,100487.53
2023-01-12T09:42:54.837Z,100490.31
2023-01-12T09:45:42.365Z,100488.81
2023-01-12T09:48:13.492Z,100482.91
2023-01-12T09:51:08.158Z,100476.25
2023-01-12T09:53:38.904Z,100478.47
2023-01-12T09:56:12.941Z,100480.13
2023-01-12T09:59:18.289Z,100476.69
2023-01-12T10:01:47.000Z,100478.00
2023-01-12T10:04:16.661Z,100477.88
2023-01-12T10:06:44.567Z,100471.34
2023-01-12T10:09:17.061Z,100477.50
2023-01-12T10:11:52.216Z,100475.44
2023-01-12T10:14:47.931Z,100473.94
2023-01-12T10:17:25.948Z,100467.66
2023-01-12T10:20:09.180Z,100473.53
2023-01-12T10:22:55.913Z,100475.34
2023-01-12T10:25:33.828Z,100467.53
2023-01-12T10:28:15.923Z,100459.66
2023-01-12T10:30:44.964Z,100458.91
2023-01-12T10:33:24.099Z,100454.59
2023-01-12T10:35:59.619Z,100459.19
2023-01-12T10:38:49.917Z,100455.84
2023-01-12T10:41:23.025Z,100462.41
2023-01-12T10:43:56.489Z,100463.25
2023-01-12T10:46:27.943Z,100454.69
2023-01-12T10:49:15.933Z,100442.00
2023-01-12T10:51:57.095Z,100443.41
2023-01-12T10:54:28.390Z,100445.34
2023-01-12T10:57:00.133Z,100444.75
2023-01-12T10:59:38.838Z,100441.69
2023-01-12T11:02:09.537Z,100450.47
2023-01-12T11:04:49.755Z,100443.72
2023-01-12T11:07:31.796Z,100448.41
2023-01-12T11:10:37.796Z,100450.16
2023-01-12T11:13:07.679Z,100438.66
2023-01-12T11:15:39.292Z,100436.34
2023-01-12T11:18:33.499Z,100432.66
2023-01-12T11:21:06.721Z,100432.63
2023-01-12T11:23:58.633Z,100436.72
2023-01-12T11:26:58.999Z,100430.84
2023-01-12T11:29:45.422Z,100426.59
2023-01-12T11:32:21.661Z,100424.16
2023-01-12T11:35:19.813Z,100417.34
2023-01-12T11:37:50.206Z,100411.41
2023-01-12T11:40:32.247Z,100406.44
2023-01-12T11:43:44.383Z,100404.72
2023-01-12T11:46:22.623Z,100406.59
2023-01-12T11:49:28.149Z,100413.56
2023-01-12T11:51:59.165Z,100413.47
2023-01-12T11:54:29.487Z,100415.91
2023-01-12T11:57:23.692Z,100407.28
2023-01-12T12:00:13.321Z,100402.00
2023-01-12T12:03:08.506Z,100404.41
2023-01-12T12:05:45.948Z,100408.34
2023-01-12T12:08:52.881Z,100403.34
2023-01-12T12:11:45.892Z,100399.91
2023-01-12T12:14:34.347Z,100396.75
2023-01-12T12:17:13.680Z,100395.97
2023-01-12T12:20:08.675Z,100394.44
2023-01-12T12:22:42.677Z,100397.81
2023-01-12T12:25:37.717Z,100403.84
2023-01-12T12:28:48.583Z,100402.66
2023-01-12T12:31:24.718Z,100403.78
2023-01-12T12:34:05.818Z,100404.94
2023-01-12T12:36:34.006Z,100400.34
2023-01-12T12:39:33.512Z,100396.28
2023-01-12T12:42:39.794Z,100398.22
2023-01-12T12:45:19.001Z,100396.59
2023-01-12T12:48:14.944Z,100401.84
2023-01-12T12:51:12.562Z,100405.47
2023-01-12T12:53:44.198Z,100411.59
2023-01-12T12:56:17.590Z,100407.97
2023-01-12T12:58:51.635Z,100408.09
2023-01-12T13:01:24.426Z,100403.72
2023-01-12T13:03:58.936Z,100404.56
2023-01-12T13:06:29.748Z,100406.16
2023-01-12T13:09:25.505Z,100399.13
2023-01-12T13:12:00.700Z,100402.72
2023-01-12T13:14:31.437Z,100394.97
2023-01-12T13:17:20.526Z,100397.56
2023-01-12T13:20:04.421Z,100394.00
2023-01-12T13:22:53.330Z,100395.59
2023-01-12T13:25:20.954Z,100398.81
2023-01-12T13:28:01.240Z,100396.28
2023-01-12T13:30:32.236Z,100396.22
2023-01-12T13:33:15.591Z,100396.16
2023-01-12T13:35:49.103Z,100401.03
2023-01-12T13:38:44.578Z,100395.06
2023-01-12T13:41:15.562Z,100394.78
2023-01-12T13:43:58.430Z,100388.88
2023-01-12T13:46:46.024Z,100394.91
2023-01-12T13:49:33.893Z,100406.00
2023-01-12T13:52:29.398Z,100414.34
2023-01-12T13:54:57.347Z,100407.28
2023-01-12T13:57:28.366Z,100406.56
2023-01-12T14:00:22.575Z,100414.25
2023-01-12T14:02:53.717Z,100419.47
2023-01-12T14:06:00.090Z,100426.25
2023-01-12T14:08:51.240Z,100421.09
2023-01-12T14:11:35.154Z,100421.84
2023-01-12T14:14:47.690Z,100422.56
2023-01-12T14:17:45.460Z,100422.50
2023-01-12T14:20:19.395Z,100425.97
2023-01-12T14:22:48.474Z,100417.09
2023-01-12T14:25:27.396Z,100424.78
2023-01-12T14:27:58.316Z,100425.66
2023-01-12T14:30:28.514Z,100432.41
2023-01-12T14:32:56.634Z,100421.94
2023-01-12T14:35:27.433Z,100428.94
2023-01-12T14:38:00.782Z,100436.63
2023-01-12T14:40:34.124Z,100431.16
2023-01-12T14:43:21.854Z,100424.38
2023-01-12T14:46:19.687Z,100436.56
2023-01-12T14:49:17.657Z,100427.91
2023-01-12T14:51:53.796Z,100420.91
2023-01-12T14:54:29.559Z,100417.31
2023-01-12T14:57:18.629Z,100424.47
2023-01-12T14:59:48.442Z,100419.19
2023-01-12T15:02:15.840Z,100425.28
2023-01-12T15:05:10.739Z,100429.53
2023-01-12T15:07:52.887Z,100434.72
2023-01-12T15:10:20.281Z,100434.81
2023-01-12T15:12:50.620Z,100436.38
2023-01-12T15:15:25.762Z,100435.66
2023-01-12T15:18:13.564Z,100425.09
2023-01-12T15:21:03.370Z,100424.34
2023-01-12T15:23:51.325Z,100431.88
2023-01-12T15:26:19.323Z,100436.19
2023-01-12T15:28:47.764Z,100436.09
2023-01-12T15:31:34.868Z,100432.72
2023-01-12T15:34:02.719Z,100434.47
2023-01-12T15:36:29.997Z,100431.06
2023-01-12T15:38:57.487Z,100432.00
2023-01-12T15:41:46.065Z,100429.41
2023-01-12T15:44:19.145Z,100420.69
2023-01-12T15:46:46.382Z,100423.31
2023-01-12T15:49:14.477Z,100426.78
2023-01-12T15:51:44.253Z,100423.19
2023-01-12T15:54:13.782Z,100425.97
2023-01-12T15:56:41.214Z,100425.00
2023-01-12T15:59:08.297Z,100424.19
2023-01-12T16:01:42.785Z,100423.44
2023-01-12T16:07:06.604Z,100413.75
2023-01-12T16:09:33.774Z,100414.59
2023-01-12T16:12:01.056Z,100417.25
2023-01-12T16:14:28.196Z,100415.38
2023-01-12T16:16:56.875Z,100410.31
2023-01-12T16:19:24.332Z,100412.00
2023-01-12T16:21:55.354Z,100410.31
2023-01-12T16:24:26.969Z,100412.00
2023-01-12T16:26:54.685Z,100405.97
2023-01-12T16:29:23.798Z,100398.34
2023-01-12T16:31:51.650Z,100405.09
2023-01-12T16:34:23.196Z,100393.13
2023-01-12T16:36:50.673Z,100395.56
2023-01-12T16:39:17.785Z,100397.34
2023-01-12T16:41:44.841Z,100387.06
2023-01-12T16:44:12.237Z,100382.84
2023-01-12T16:46:39.393Z,100386.31
2023-01-12T16:49:06.567Z,100390.66
2023-01-12T16:51:34.895Z,100388.75
2023-01-12T16:54:02.915Z,100384.59
2023-01-12T16:56:30.266Z,100380.22
2023-01-12T16:58:58.134Z,100383.69
2023-01-12T17:01:26.641Z,100384.41
2023-01-12T17:03:58.067Z,100381.81
2023-01-12T17:06:27.782Z,100383.56
2023-01-12T17:08:55.716Z,100383.78
2023-01-12T17:11:24.577Z,100394.97
2023-01-12T17:13:54.514Z,100389.78
2023-01-12T17:16:23.743Z,100387.31
2023-01-12T17:18:51.120Z,100388.88
2023-01-12T17:21:19.889Z,100383.53
2023-01-12T17:23:47.997Z,100383.50
2023-01-12T17:26:17.998Z,100378.31
2023-01-12T17:28:46.924Z,100377.22
2023-01-12T17:31:16.518Z,100368.72
2023-01-12T17:33:43.615Z,100364.47
2023-01-12T17:36:12.676Z,100364.41
2023-01-12T17:38:40.400Z,100366.09
2023-01-12T17:41:32.826Z,100365.03
2023-01-12T17:44:02.384Z,100363.53
2023-01-12T17:46:30.596Z,100368.59
2023-01-12T17:48:59.520Z,100369.47
2023-01-12T17:51:26.883Z,100366.09
2023-01-12T17:53:58.475Z,100369.69
2023-01-12T17:56:29.904Z,100367.00
2023-01-12T17:58:57.588Z,100374.06
2023-01-12T18:01:26.579Z,100387.94
2023-01-12T18:03:53.952Z,100379.13
2023-01-12T18:06:28.401Z,100379.09
2023-01-12T18:08:57.073Z,100367.88
2023-01-12T18:11:24.242Z,100376.66
2023-01-12T18:13:51.764Z,100373.91
2023-01-12T18:16:19.383Z,100372.16
2023-01-12T18:18:46.798Z,100365.16
2023-01-12T18:21:16.176Z,100360.16
2023-01-12T18:23:43.780Z,100365.34
2023-01-12T18:26:14.843Z,100372.25
2023-01-12T18:28:42.564Z,100372.00
2023-01-12T18:31:13.626Z,100365.34
2023-01-12T18:33:41.446Z,100377.47
2023-01-12T18:36:11.591Z,100373.69
2023-01-12T18:38:42.285Z,100360.94
2023-01-12T18:41:28.926Z,100365.31
2023-01-12T18:43:58.677Z,100372.28
2023-01-12T18:46:44.615Z,100385.78
2023-01-12T18:49:11.863Z,100375.09
2023-01-12T18:51:57.150Z,100379.72
2023-01-12T18:54:24.493Z,100374.47
2023-01-12T18:56:51.991Z,100365.44
2023-01-12T18:59:19.223Z,100364.56
2023-01-12T19:01:46.410Z,100370.53
2023-01-12T19:04:15.905Z,100373.75
2023-01-12T19:06:47.766Z,100379.50
2023-01-12T19:09:33.664Z,100374.91
2023-01-12T19:12:02.199Z,100370.47
2023-01-12T19:15:07.659Z,100371.38
2023-01-12T19:17:35.122Z,100370.22
2023-01-12T19:20:06.654Z,100374.78
2023-01-12T19:22:52.960Z,100372.13
2023-01-12T19:25:41.881Z,100365.53
2023-01-12T19:28:32.952Z,100364.56
2023-01-12T19:31:02.296Z,100372.22
2023-01-12T19:33:30.250Z,100366.63
2023-01-12T19:35:57.522Z,100367.00
2023-01-12T19:38:24.821Z,100376.38
2023-01-12T19:40:54.370Z,100374.88
2023-01-12T19:43:30.045Z,100379.38
2023-01-12T19:45:59.340Z,100380.38
2023-01-12T19:48:27.356Z,100382.16
2023-01-12T19:50:55.074Z,100379.56
2023-01-12T19:53:28.361Z,100382.28
2023-01-12T19:55:55.795Z,100381.53
2023-01-12T19:58:23.602Z,100377.97
2023-01-12T20:00:51.333Z,100384.63
2023-01-12T20:03:21.056Z,100379.50
2023-01-12T20:05:51.080Z,100371.00
2023-01-12T20:08:24.480Z,100374.38
2023-01-12T20:10:56.743Z,100365.78
2023-01-12T20:13:24.030Z,100362.38
2023-01-12T20:15:51.786Z,100363.97
2023-01-12T20:18:19.435Z,100372.56
2023-01-12T20:20:47.120Z,100380.50
2023-01-12T20:23:15.645Z,100384.53
2023-01-12T20:25:45.014Z,100388.59
2023-01-12T20:28:15.148Z,100389.34
2023-01-12T20:30:43.299Z,100390.25
2023-01-12T20:33:11.898Z,100382.44
2023-01-12T20:35:45.416Z,100392.16
2023-01-12T20:38:15.930Z,100392.13
2023-01-12T20:40:45.124Z,100395.53
2023-01-12T20:43:12.837Z,100397.41
2023-01-12T20:45:42.121Z,100390.72
2023-01-12T20:48:12.522Z,100404.94
2023-01-12T20:50:45.876Z,100397.22
2023-01-12T20:53:15.842Z,100404.13
2023-01-12T20:55:49.434Z,100403.91
2023-01-12T20:58:17.254Z,100411.03
2023-01-12T21:00:44.692Z,100417.56
2023-01-12T21:03:11.950Z,100419.16
2023-01-12T21:05:43.522Z,100409.00
2023-01-12T21:08:11.167Z,100420.50
2023-01-12T21:10:39.779Z,100422.38
2023-01-12T21:13:10.628Z,100421.34
2023-01-12T21:15:41.345Z,100420.63
2023-01-12T21:18:09.669Z,100421.59
2023-01-12T21:20:40.485Z,100419.97
2023-01-12T21:23:07.554Z,100416.63
2023-01-12T21:25:34.868Z,100416.56
2023-01-12T21:28:02.309Z,100413.03
2023-01-12T21:30:29.472Z,100402.50
2023-01-12T21:32:57.251Z,100407.72
2023-01-12T21:35:25.678Z,100413.66
2023-01-12T21:37:53.039Z,100400.03
2023-01-12T21:40:20.941Z,100406.09
2023-01-12T21:43:06.880Z,100405.56
2023-01-12T21:45:41.728Z,100402.50
2023-01-12T21:48:10.684Z,100398.91
2023-01-12T21:50:37.972Z,100392.09
2023-01-12T21:53:06.949Z,100385.13
2023-01-12T21:55:34.663Z,100380.69
2023-01-12T21:58:02.969Z,100380.81
2023-01-12T22:00:30.759Z,100374.91
2023-01-12T22:02:57.994Z,100370.72
2023-01-12T22:05:25.825Z,100372.66
2023-01-12T22:07:55.473Z,100374.38
2023-01-12T22:10:24.533Z,100377.00
2023-01-12T22:12:55.228Z,100371.91
2023-01-12T22:15:23.752Z,100370.09
2023-01-12T22:17:54.356Z,100374.38
2023-01-12T22:20:22.648Z,100375.13
2023-01-12T22:22:50.322Z,100362.19
2023-01-12T22:25:18.148Z,100364.88
2023-01-12T22:27:45.692Z,100362.22
2023-01-12T22:30:20.052Z,100363.78
2023-01-12T22:32:47.783Z,100362.84
2023-01-12T22:35:15.247Z,100361.16
2023-01-12T22:37:42.527Z,100357.75
2023-01-12T22:40:11.743Z,100358.50
2023-01-12T22:42:57.947Z,100366.34
2023-01-12T22:45:25.368Z,100360.84
2023-01-12T22:47:54.091Z,100363.66
2023-01-12T22:50:22.117Z,100362.59
2023-01-12T22:52:50.959Z,100355.72
2023-01-12T22:55:18.400Z,100355.63
2023-01-12T22:57:45.666Z,100364.13
2023-01-12T23:00:13.822Z,100353.81
2023-01-12T23:02:59.626Z,100354.91
2023-01-12T23:05:36.533Z,100352.19
2023-01-12T23:08:07.280Z,100357.63
2023-01-12T23:10:35.299Z,100350.91
2023-01-12T23:13:11.875Z,100353.59
2023-01-12T23:15:44.583Z,100348.66
2023-01-12T23:18:14.180Z,100345.31
2023-01-12T23:20:42.785Z,100336.41
2023-01-12T23:23:10.927Z,100343.59
2023-01-12T23:25:38.859Z,100340.97
2023-01-12T23:28:07.673Z,100340.44
2023-01-12T23:30:34.928Z,100337.97
2023-01-12T23:33:06.329Z,100340.47
2023-01-12T23:35:41.997Z,100337.16
2023-01-12T23:38:14.935Z,100344.66
2023-01-12T23:40:42.210Z,100346.19
2023-01-12T23:43:09.508Z,100348.72
2023-01-12T23:45:36.753Z,100346.84
2023-01-12T23:48:06.954Z,100356.53
2023-01-12T23:50:34.073Z,100352.25
2023-01-12T23:53:01.255Z,100358.78
2023-01-12T23:55:30.067Z,100361.25
2023-01-12T23:57:57.443Z,100361.16
